sensor_id;sensor_type;location;lat;lon;timestamp;pressure;altitude;pressure_sealevel;temperature;humidity
80116;BME280;69423;47.608;19.366;2024-01-27T00:00:05;99206.22;;;4.94;100.00
80116;BME280;69423;47.608;19.366;2024-01-27T00:00:36;99201.47;;;4.98;100.00
80116;BME280;69423;47.608;19.366;2024-01-27T00:01:08;99207.63;;;4.98;100.00
80116;BME280;69423;47.608;19.366;2024-01-27T00:01:39;99224.84;;;5.02;100.00
80116;BME280;69423;47.608;19.366;2024-01-27T00:02:10;99220.41;;;5.03;100.00
80116;BME280;69423;47.608;19.366;2024-01-27T00:02:41;99214.41;;;5.01;100.00
80116;BME280;69423;47.608;19.366;2024-01-27T00:03:12;99210.66;;;5.03;100.00
80116;BME280;69423;47.608;19.366;2024-01-27T00:03:43;99219.28;;;5.05;100.00
80116;BME280;69423;47.608;19.366;2024-01-27T00:04:14;99205.25;;;5.05;100.00
80116;BME280;69423;47.608;19.366;2024-01-27T00:04:45;99218.16;;;5.08;100.00
80116;BME280;69423;47.608;19.366;2024-01-27T00:05:16;99228.59;;;5.10;100.00
80116;BME280;69423;47.608;19.366;2024-01-27T00:05:47;99217.47;;;5.06;100.00
80116;BME280;69423;47.608;19.366;2024-01-27T00:06:18;99220.66;;;5.10;100.00
80116;BME280;69423;47.608;19.366;2024-01-27T00:06:49;99213.56;;;5.10;100.00
80116;BME280;69423;47.608;19.366;2024-01-27T00:07:20;99222.19;;;5.12;100.00
80116;BME280;69423;47.608;19.366;2024-01-27T00:07:51;99231.78;;;5.13;100.00
80116;BME280;69423;47.608;19.366;2024-01-27T00:08:22;99217.06;;;5.11;100.00
80116;BME280;69423;47.608;19.366;2024-01-27T00:08:53;99230.97;;;5.13;100.00
80116;BME280;69423;47.608;19.366;2024-01-27T00:09:24;99224.56;;;5.15;100.00
80116;BME280;69423;47.608;19.366;2024-01-27T00:09:55;99233.19;;;5.17;100.00
80116;BME280;69423;47.608;19.366;2024-01-27T00:10:26;99235.00;;;5.17;100.00
80116;BME280;69423;47.608;19.366;2024-01-27T00:10:57;99228.03;;;5.16;100.00
80116;BME280;69423;47.608;19.366;2024-01-27T00:11:28;99227.34;;;5.14;100.00
80116;BME280;69423;47.608;19.366;2024-01-27T00:11:59;99242.94;;;5.17;100.00
80116;BME280;69423;47.608;19.366;2024-01-27T00:12:30;99240.97;;;5.19;100.00
80116;BME280;69423;47.608;19.366;2024-01-27T00:13:01;99241.94;;;5.18;100.00
80116;BME280;69423;47.608;19.366;2024-01-27T00:13:33;99240.97;;;5.19;100.00
80116;BME280;69423;47.608;19.366;2024-01-27T00:14:04;99221.78;;;5.17;100.00
80116;BME280;69423;47.608;19.366;2024-01-27T00:14:38;99236.66;;;5.18;100.00
80116;BME280;69423;47.608;19.366;2024-01-27T00:15:09;99250.69;;;5.18;100.00
80116;BME280;69423;47.608;19.366;2024-01-27T00:15:40;99235.69;;;5.19;100.00
80116;BME280;69423;47.608;19.366;2024-01-27T00:16:11;99241.81;;;5.19;100.00
80116;BME280;69423;47.608;19.366;2024-01-27T00:16:43;99242.75;;;5.18;100.00
80116;BME280;69423;47.608;19.366;2024-01-27T00:17:14;99262.13;;;5.19;100.00
80116;BME280;69423;47.608;19.366;2024-01-27T00:17:45;99250.56;;;5.20;100.00
80116;BME280;69423;47.608;19.366;2024-01-27T00:18:16;99261.00;;;5.21;100.00
80116;BME280;69423;47.608;19.366;2024-01-27T00:18:47;99251.69;;;5.17;100.00
80116;BME280;69423;47.608;19.366;2024-01-27T00:19:18;99247.91;;;5.20;100.00
80116;BME280;69423;47.608;19.366;2024-01-27T00:19:50;99253.91;;;5.22;100.00
80116;BME280;69423;47.608;19.366;2024-01-27T00:20:21;99245.13;;;5.21;100.00
80116;BME280;69423;47.608;19.366;2024-01-27T00:20:52;99245.28;;;5.20;100.00
80116;BME280;69423;47.608;19.366;2024-01-27T00:21:23;99251.56;;;5.19;100.00
80116;BME280;69423;47.608;19.366;2024-01-27T00:21:54;99237.34;;;5.20;100.00
80116;BME280;69423;47.608;19.366;2024-01-27T00:22:25;99247.09;;;5.19;100.00
80116;BME280;69423;47.608;19.366;2024-01-27T00:22:56;99254.88;;;5.21;100.00
80116;BME280;69423;47.608;19.366;2024-01-27T00:23:27;99263.22;;;5.26;100.00
80116;BME280;69423;47.608;19.366;2024-01-27T00:23:58;99263.22;;;5.26;100.00
80116;BME280;69423;47.608;19.366;2024-01-27T00:24:31;99266.56;;;5.28;100.00
80116;BME280;69423;47.608;19.366;2024-01-27T00:25:02;99259.75;;;5.25;100.00
80116;BME280;69423;47.608;19.366;2024-01-27T00:25:34;99270.16;;;5.27;100.00
80116;BME280;69423;47.608;19.366;2024-01-27T00:26:05;99259.56;;;5.27;100.00
80116;BME280;69423;47.608;19.366;2024-01-27T00:26:36;99280.72;;;5.27;100.00
80116;BME280;69423;47.608;19.366;2024-01-27T00:27:07;99261.25;;;5.28;100.00
80116;BME280;69423;47.608;19.366;2024-01-27T00:27:38;99273.34;;;5.31;100.00
80116;BME280;69423;47.608;19.366;2024-01-27T00:28:09;99284.06;;;5.29;100.00
80116;BME280;69423;47.608;19.366;2024-01-27T00:28:40;99286.88;;;5.27;100.00
80116;BME280;69423;47.608;19.366;2024-01-27T00:29:11;99284.94;;;5.30;100.00
80116;BME280;69423;47.608;19.366;2024-01-27T00:29:42;99279.34;;;5.33;100.00
80116;BME280;69423;47.608;19.366;2024-01-27T00:30:14;99290.06;;;5.31;100.00
80116;BME280;69423;47.608;19.366;2024-01-27T00:30:45;99293.56;;;5.32;100.00
80116;BME280;69423;47.608;19.366;2024-01-27T00:31:16;99289.09;;;5.32;100.00
80116;BME280;69423;47.608;19.366;2024-01-27T00:31:47;99291.16;;;5.28;100.00
80116;BME280;69423;47.608;19.366;2024-01-27T00:32:18;99289.09;;;5.32;100.00
80116;BME280;69423;47.608;19.366;2024-01-27T00:32:49;99289.09;;;5.32;100.00
80116;BME280;69423;47.608;19.366;2024-01-27T00:33:21;99277.00;;;5.30;100.00
80116;BME280;69423;47.608;19.366;2024-01-27T00:33:52;99285.63;;;5.32;100.00
80116;BME280;69423;47.608;19.366;2024-01-27T00:34:23;99293.38;;;5.33;100.00
80116;BME280;69423;47.608;19.366;2024-01-27T00:34:54;99280.16;;;5.33;100.00
80116;BME280;69423;47.608;19.366;2024-01-27T00:35:25;99288.25;;;5.32;100.00
80116;BME280;69423;47.608;19.366;2024-01-27T00:35:56;99304.94;;;5.32;100.00
80116;BME280;69423;47.608;19.366;2024-01-27T00:36:27;99284.75;;;5.31;100.00
80116;BME280;69423;47.608;19.366;2024-01-27T00:36:58;99303.28;;;5.31;100.00
80116;BME280;69423;47.608;19.366;2024-01-27T00:37:29;99298.84;;;5.32;100.00
80116;BME280;69423;47.608;19.366;2024-01-27T00:38:00;99289.34;;;5.29;100.00
80116;BME280;69423;47.608;19.366;2024-01-27T00:38:31;99291.03;;;5.30;100.00
80116;BME280;69423;47.608;19.366;2024-01-27T00:39:03;99297.97;;;5.31;100.00
80116;BME280;69423;47.608;19.366;2024-01-27T00:39:35;99296.19;;;5.32;100.00
80116;BME280;69423;47.608;19.366;2024-01-27T00:40:12;99299.66;;;5.32;100.00
80116;BME280;69423;47.608;19.366;2024-01-27T00:40:43;99301.31;;;5.33;100.00
80116;BME280;69423;47.608;19.366;2024-01-27T00:41:18;99308.00;;;5.37;100.00
80116;BME280;69423;47.608;19.366;2024-01-27T00:41:49;99301.06;;;5.36;100.00
80116;BME280;69423;47.608;19.366;2024-01-27T00:42:20;99293.25;;;5.35;100.00
80116;BME280;69423;47.608;19.366;2024-01-27T00:42:54;99298.66;;;5.33;100.00
80116;BME280;69423;47.608;19.366;2024-01-27T00:43:25;99299.66;;;5.32;100.00
80116;BME280;69423;47.608;19.366;2024-01-27T00:43:57;99299.66;;;5.32;100.00
80116;BME280;69423;47.608;19.366;2024-01-27T00:44:28;99308.56;;;5.31;100.00
80116;BME280;69423;47.608;19.366;2024-01-27T00:44:59;99308.56;;;5.31;100.00
80116;BME280;69423;47.608;19.366;2024-01-27T00:45:30;99307.84;;;5.29;100.00
80116;BME280;69423;47.608;19.366;2024-01-27T00:46:01;99305.09;;;5.31;100.00
80116;BME280;69423;47.608;19.366;2024-01-27T00:46:32;99303.28;;;5.31;100.00
80116;BME280;69423;47.608;19.366;2024-01-27T00:47:03;99310.25;;;5.32;100.00
80116;BME280;69423;47.608;19.366;2024-01-27T00:47:34;99300.78;;;5.30;100.00
80116;BME280;69423;47.608;19.366;2024-01-27T00:48:05;99307.16;;;5.27;100.00
80116;BME280;69423;47.608;19.366;2024-01-27T00:48:36;99303.84;;;5.25;100.00
80116;BME280;69423;47.608;19.366;2024-01-27T00:49:07;99305.50;;;5.26;100.00
80116;BME280;69423;47.608;19.366;2024-01-27T00:49:38;99316.91;;;5.26;100.00
80116;BME280;69423;47.608;19.366;2024-01-27T00:50:09;99309.16;;;5.25;100.00
80116;BME280;69423;47.608;19.366;2024-01-27T00:50:41;99312.19;;;5.30;100.00
80116;BME280;69423;47.608;19.366;2024-01-27T00:51:13;99321.09;;;5.29;100.00
80116;BME280;69423;47.608;19.366;2024-01-27T00:51:44;99319.44;;;5.28;100.00
80116;BME280;69423;47.608;19.366;2024-01-27T00:52:15;99310.81;;;5.26;100.00
80116;BME280;69423;47.608;19.366;2024-01-27T00:52:46;99313.31;;;5.27;100.00
80116;BME280;69423;47.608;19.366;2024-01-27T00:53:17;99321.94;;;5.30;100.00
80116;BME280;69423;47.608;19.366;2024-01-27T00:53:48;99321.94;;;5.30;100.00
80116;BME280;69423;47.608;19.366;2024-01-27T00:54:19;99331.53;;;5.31;100.00
80116;BME280;69423;47.608;19.366;2024-01-27T00:54:50;99320.13;;;5.30;100.00
80116;BME280;69423;47.608;19.366;2024-01-27T00:55:21;99321.09;;;5.29;100.00
80116;BME280;69423;47.608;19.366;2024-01-27T00:55:52;99327.34;;;5.28;100.00
80116;BME280;69423;47.608;19.366;2024-01-27T00:56:23;99314.97;;;5.28;100.00
80116;BME280;69423;47.608;19.366;2024-01-27T00:56:54;99320.94;;;5.31;100.00
80116;BME280;69423;47.608;19.366;2024-01-27T00:57:25;99320.00;;;5.32;100.00
80116;BME280;69423;47.608;19.366;2024-01-27T00:57:56;99320.25;;;5.28;100.00
80116;BME280;69423;47.608;19.366;2024-01-27T00:58:27;99317.47;;;5.30;100.00
80116;BME280;69423;47.608;19.366;2024-01-27T00:58:58;99335.59;;;5.25;100.00
80116;BME280;69423;47.608;19.366;2024-01-27T00:59:30;99329.19;;;5.27;100.00
80116;BME280;69423;47.608;19.366;2024-01-27T01:00:01;99329.19;;;5.27;100.00
80116;BME280;69423;47.608;19.366;2024-01-27T01:00:33;99340.00;;;5.24;100.00
80116;BME280;69423;47.608;19.366;2024-01-27T01:01:04;99327.50;;;5.26;100.00
80116;BME280;69423;47.608;19.366;2024-01-27T01:01:35;99323.19;;;5.25;100.00
80116;BME280;69423;47.608;19.366;2024-01-27T01:02:06;99336.25;;;5.27;100.00
80116;BME280;69423;47.608;19.366;2024-01-27T01:02:38;99334.47;;;5.27;100.00
80116;BME280;69423;47.608;19.366;2024-01-27T01:03:09;99333.59;;;5.27;100.00
80116;BME280;69423;47.608;19.366;2024-01-27T01:03:40;99330.44;;;5.23;100.00
80116;BME280;69423;47.608;19.366;2024-01-27T01:04:11;99338.34;;;5.23;100.00
80116;BME280;69423;47.608;19.366;2024-01-27T01:04:42;99332.25;;;5.23;100.00
80116;BME280;69423;47.608;19.366;2024-01-27T01:05:13;99334.72;;;5.24;100.00
80116;BME280;69423;47.608;19.366;2024-01-27T01:05:44;99317.47;;;5.20;100.00
80116;BME280;69423;47.608;19.366;2024-01-27T01:06:15;99331.38;;;5.22;100.00
80116;BME280;69423;47.608;19.366;2024-01-27T01:06:46;99328.47;;;5.25;100.00
80116;BME280;69423;47.608;19.366;2024-01-27T01:07:17;99328.59;;;5.24;100.00
80116;BME280;69423;47.608;19.366;2024-01-27T01:07:48;99328.34;;;5.17;100.00
80116;BME280;69423;47.608;19.366;2024-01-27T01:08:19;99318.88;;;5.15;100.00
80116;BME280;69423;47.608;19.366;2024-01-27T01:08:50;99327.22;;;5.10;100.00
80116;BME280;69423;47.608;19.366;2024-01-27T01:09:21;99329.72;;;5.12;100.00
80116;BME280;69423;47.608;19.366;2024-01-27T01:09:52;99338.34;;;5.14;100.00
80116;BME280;69423;47.608;19.366;2024-01-27T01:10:23;99329.72;;;5.12;100.00
80116;BME280;69423;47.608;19.366;2024-01-27T01:10:55;99320.41;;;5.07;100.00
80116;BME280;69423;47.608;19.366;2024-01-27T01:11:26;99333.63;;;5.07;100.00
80116;BME280;69423;47.608;19.366;2024-01-27T01:11:57;99330.97;;;5.07;100.00
80116;BME280;69423;47.608;19.366;2024-01-27T01:12:28;99336.25;;;5.07;100.00
80116;BME280;69423;47.608;19.366;2024-01-27T01:12:59;99331.97;;;5.06;100.00
80116;BME280;69423;47.608;19.366;2024-01-27T01:13:30;99345.16;;;5.06;100.00
80116;BME280;69423;47.608;19.366;2024-01-27T01:14:01;99331.53;;;5.01;100.00
80116;BME280;69423;47.608;19.366;2024-01-27T01:14:32;99335.69;;;5.04;100.00
80116;BME280;69423;47.608;19.366;2024-01-27T01:15:03;99325.97;;;5.04;100.00
80116;BME280;69423;47.608;19.366;2024-01-27T01:15:35;99343.09;;;5.00;100.00
80116;BME280;69423;47.608;19.366;2024-01-27T01:16:06;99327.34;;;4.99;100.00
80116;BME280;69423;47.608;19.366;2024-01-27T01:16:40;99340.69;;;4.97;100.00
80116;BME280;69423;47.608;19.366;2024-01-27T01:17:11;99338.19;;;4.96;100.00
80116;BME280;69423;47.608;19.366;2024-01-27T01:17:42;99329.72;;;4.92;100.00
80116;BME280;69423;47.608;19.366;2024-01-27T01:18:13;99334.00;;;4.93;100.00
80116;BME280;69423;47.608;19.366;2024-01-27T01:18:44;99332.19;;;4.94;100.00
80116;BME280;69423;47.608;19.366;2024-01-27T01:19:15;99329.56;;;4.94;100.00
80116;BME280;69423;47.608;19.366;2024-01-27T01:19:46;99344.59;;;4.93;100.00
80116;BME280;69423;47.608;19.366;2024-01-27T01:20:17;99305.25;;;4.90;100.00
80116;BME280;69423;47.608;19.366;2024-01-27T01:20:48;99325.25;;;4.93;100.00
80116;BME280;69423;47.608;19.366;2024-01-27T01:21:19;99329.03;;;4.90;100.00
80116;BME280;69423;47.608;19.366;2024-01-27T01:21:50;99328.03;;;4.91;100.00
80116;BME280;69423;47.608;19.366;2024-01-27T01:22:22;99337.06;;;4.89;100.00
80116;BME280;69423;47.608;19.366;2024-01-27T01:22:53;99339.72;;;4.89;100.00
80116;BME280;69423;47.608;19.366;2024-01-27T01:23:24;99341.53;;;4.88;100.00
80116;BME280;69423;47.608;19.366;2024-01-27T01:23:55;99330.97;;;4.88;100.00
80116;BME280;69423;47.608;19.366;2024-01-27T01:24:26;99335.56;;;4.86;100.00
80116;BME280;69423;47.608;19.366;2024-01-27T01:24:57;99333.03;;;4.84;100.00
80116;BME280;69423;47.608;19.366;2024-01-27T01:25:29;99342.78;;;4.84;100.00
80116;BME280;69423;47.608;19.366;2024-01-27T01:26:00;99336.66;;;4.83;100.00
80116;BME280;69423;47.608;19.366;2024-01-27T01:26:31;99336.09;;;4.80;100.00
80116;BME280;69423;47.608;19.366;2024-01-27T01:27:02;99327.47;;;4.78;100.00
80116;BME280;69423;47.608;19.366;2024-01-27T01:27:33;99336.22;;;4.78;100.00
80116;BME280;69423;47.608;19.366;2024-01-27T01:28:05;99327.47;;;4.78;100.00
80116;BME280;69423;47.608;19.366;2024-01-27T01:28:36;99332.75;;;4.78;100.00
80116;BME280;69423;47.608;19.366;2024-01-27T01:29:07;99333.72;;;4.77;100.00
80116;BME280;69423;47.608;19.366;2024-01-27T01:29:38;99328.44;;;4.77;100.00
80116;BME280;69423;47.608;19.366;2024-01-27T01:30:09;99327.72;;;4.75;100.00
80116;BME280;69423;47.608;19.366;2024-01-27T01:30:40;99318.56;;;4.79;100.00
80116;BME280;69423;47.608;19.366;2024-01-27T01:31:11;99318.84;;;4.76;100.00
80116;BME280;69423;47.608;19.366;2024-01-27T01:31:42;99320.50;;;4.77;99.64
80116;BME280;69423;47.608;19.366;2024-01-27T01:32:13;99315.91;;;4.79;99.81
80116;BME280;69423;47.608;19.366;2024-01-27T01:32:44;99302.16;;;4.75;99.70
80116;BME280;69423;47.608;19.366;2024-01-27T01:33:15;99306.59;;;4.75;99.29
80116;BME280;69423;47.608;19.366;2024-01-27T01:33:46;99308.53;;;4.73;99.03
80116;BME280;69423;47.608;19.366;2024-01-27T01:34:18;99306.75;;;4.73;98.93
80116;BME280;69423;47.608;19.366;2024-01-27T01:34:49;99303.25;;;4.73;99.02
80116;BME280;69423;47.608;19.366;2024-01-27T01:35:20;99305.63;;;4.76;98.99
80116;BME280;69423;47.608;19.366;2024-01-27T01:35:51;99290.91;;;4.73;98.74
80116;BME280;69423;47.608;19.366;2024-01-27T01:36:22;99291.28;;;4.69;98.80
80116;BME280;69423;47.608;19.366;2024-01-27T01:36:53;99292.41;;;4.66;99.07
80116;BME280;69423;47.608;19.366;2024-01-27T01:37:24;99291.28;;;4.69;98.41
80116;BME280;69423;47.608;19.366;2024-01-27T01:37:55;99287.69;;;4.70;98.88
80116;BME280;69423;47.608;19.366;2024-01-27T01:38:26;99295.50;;;4.71;98.38
80116;BME280;69423;47.608;19.366;2024-01-27T01:38:58;99290.34;;;4.70;98.50
80116;BME280;69423;47.608;19.366;2024-01-27T01:39:29;99287.97;;;4.66;98.40
80116;BME280;69423;47.608;19.366;2024-01-27T01:40:00;99298.38;;;4.68;97.78
80116;BME280;69423;47.608;19.366;2024-01-27T01:40:31;99298.13;;;4.71;97.94
80116;BME280;69423;47.608;19.366;2024-01-27T01:41:02;99303.25;;;4.73;97.90
80116;BME280;69423;47.608;19.366;2024-01-27T01:41:33;99294.63;;;4.71;97.98
80116;BME280;69423;47.608;19.366;2024-01-27T01:42:04;99310.63;;;4.69;97.93
80116;BME280;69423;47.608;19.366;2024-01-27T01:42:35;99304.78;;;4.65;97.27
80116;BME280;69423;47.608;19.366;2024-01-27T01:43:10;99290.59;;;4.66;97.45
80116;BME280;69423;47.608;19.366;2024-01-27T01:43:42;99299.22;;;4.69;97.32
80116;BME280;69423;47.608;19.366;2024-01-27T01:44:13;99293.25;;;4.66;97.53
80116;BME280;69423;47.608;19.366;2024-01-27T01:44:44;99296.03;;;4.65;97.52
80116;BME280;69423;47.608;19.366;2024-01-27T01:45:15;99286.56;;;4.62;97.58
80116;BME280;69423;47.608;19.366;2024-01-27T01:45:47;99293.53;;;4.63;97.56
80116;BME280;69423;47.608;19.366;2024-01-27T01:46:22;99302.28;;;4.64;97.40
80116;BME280;69423;47.608;19.366;2024-01-27T01:46:55;99302.16;;;4.65;97.33
80116;BME280;69423;47.608;19.366;2024-01-27T01:47:26;99297.00;;;4.64;97.53
80116;BME280;69423;47.608;19.366;2024-01-27T01:47:57;99307.31;;;4.67;97.20
80116;BME280;69423;47.608;19.366;2024-01-27T01:48:28;99307.56;;;4.64;97.40
80116;BME280;69423;47.608;19.366;2024-01-27T01:49:00;99293.53;;;4.63;96.76
80116;BME280;69423;47.608;19.366;2024-01-27T01:49:31;99299.63;;;4.64;97.03
80116;BME280;69423;47.608;19.366;2024-01-27T01:50:03;99307.69;;;4.62;97.06
80116;BME280;69423;47.608;19.366;2024-01-27T01:50:34;99297.97;;;4.63;96.69
80116;BME280;69423;47.608;19.366;2024-01-27T01:51:05;99310.19;;;4.64;97.09
80116;BME280;69423;47.608;19.366;2024-01-27T01:51:36;99297.97;;;4.63;97.00
80116;BME280;69423;47.608;19.366;2024-01-27T01:52:07;99309.38;;;4.63;97.10
80116;BME280;69423;47.608;19.366;2024-01-27T01:52:39;99307.84;;;4.61;97.22
80116;BME280;69423;47.608;19.366;2024-01-27T01:53:10;99308.81;;;4.60;96.11
80116;BME280;69423;47.608;19.366;2024-01-27T01:53:41;99313.97;;;4.61;96.18
80116;BME280;69423;47.608;19.366;2024-01-27T01:54:12;99319.94;;;4.63;96.24
80116;BME280;69423;47.608;19.366;2024-01-27T01:54:44;99318.41;;;4.61;95.93
80116;BME280;69423;47.608;19.366;2024-01-27T01:55:15;99322.69;;;4.62;95.46
80116;BME280;69423;47.608;19.366;2024-01-27T01:55:47;99327.84;;;4.63;96.25
80116;BME280;69423;47.608;19.366;2024-01-27T01:56:18;99328.81;;;4.62;95.99
80116;BME280;69423;47.608;19.366;2024-01-27T01:56:49;99333.28;;;4.62;95.95
80116;BME280;69423;47.608;19.366;2024-01-27T01:57:21;99342.31;;;4.59;96.22
80116;BME280;69423;47.608;19.366;2024-01-27T01:57:52;99343.97;;;4.60;95.62
80116;BME280;69423;47.608;19.366;2024-01-27T01:58:23;99345.53;;;4.63;95.40
80116;BME280;69423;47.608;19.366;2024-01-27T01:58:55;99342.88;;;4.63;95.61
80116;BME280;69423;47.608;19.366;2024-01-27T01:59:26;99345.66;;;4.61;95.49
80116;BME280;69423;47.608;19.366;2024-01-27T01:59:57;99350.81;;;4.63;95.28
80116;BME280;69423;47.608;19.366;2024-01-27T02:00:28;99356.09;;;4.63;95.51
80116;BME280;69423;47.608;19.366;2024-01-27T02:01:02;99358.56;;;4.64;95.69
80116;BME280;69423;47.608;19.366;2024-01-27T02:01:33;99354.41;;;4.62;95.27
80116;BME280;69423;47.608;19.366;2024-01-27T02:02:04;99369.41;;;4.61;95.16
80116;BME280;69423;47.608;19.366;2024-01-27T02:02:35;99355.38;;;4.61;95.51
80116;BME280;69423;47.608;19.366;2024-01-27T02:03:10;99366.06;;;4.59;95.50
80116;BME280;69423;47.608;19.366;2024-01-27T02:03:51;99371.06;;;4.62;94.97
80116;BME280;69423;47.608;19.366;2024-01-27T02:04:22;99367.47;;;4.63;94.87
80116;BME280;69423;47.608;19.366;2024-01-27T02:04:53;99375.41;;;4.63;94.56
80116;BME280;69423;47.608;19.366;2024-01-27T02:05:24;99375.53;;;4.62;94.69
80116;BME280;69423;47.608;19.366;2024-01-27T02:05:56;99359.44;;;4.65;94.30
80116;BME280;69423;47.608;19.366;2024-01-27T02:06:27;99375.53;;;4.62;94.38
80116;BME280;69423;47.608;19.366;2024-01-27T02:06:58;99383.19;;;4.65;94.35
80116;BME280;69423;47.608;19.366;2024-01-27T02:07:29;99374.41;;;4.64;93.93
80116;BME280;69423;47.608;19.366;2024-01-27T02:08:00;99374.81;;;4.60;93.93
80116;BME280;69423;47.608;19.366;2024-01-27T02:08:32;99380.09;;;4.60;93.98
80116;BME280;69423;47.608;19.366;2024-01-27T02:09:03;99372.06;;;4.61;94.03
80116;BME280;69423;47.608;19.366;2024-01-27T02:09:35;99379.00;;;4.62;93.89
80116;BME280;69423;47.608;19.366;2024-01-27T02:10:16;99374.56;;;4.63;93.92
80116;BME280;69423;47.608;19.366;2024-01-27T02:10:47;99380.69;;;4.63;93.94
80116;BME280;69423;47.608;19.366;2024-01-27T02:11:19;99364.13;;;4.61;93.77
80116;BME280;69423;47.608;19.366;2024-01-27T02:11:50;99375.28;;;4.65;93.06
80116;BME280;69423;47.608;19.366;2024-01-27T02:12:21;99400.69;;;4.66;93.58
80116;BME280;69423;47.608;19.366;2024-01-27T02:12:52;99381.78;;;4.61;93.60
80116;BME280;69423;47.608;19.366;2024-01-27T02:13:23;99378.28;;;4.60;93.74
80116;BME280;69423;47.608;19.366;2024-01-27T02:13:54;99393.06;;;4.63;93.51
80116;BME280;69423;47.608;19.366;2024-01-27T02:14:26;99383.31;;;4.63;93.58
80116;BME280;69423;47.608;19.366;2024-01-27T02:14:58;99383.44;;;4.62;93.25
80116;BME280;69423;47.608;19.366;2024-01-27T02:15:29;99384.28;;;4.62;93.62
80116;BME280;69423;47.608;19.366;2024-01-27T02:16:00;99379.28;;;4.59;93.13
80116;BME280;69423;47.608;19.366;2024-01-27T02:16:31;99398.34;;;4.63;93.36
80116;BME280;69423;47.608;19.366;2024-01-27T02:17:02;99392.47;;;4.59;93.23
80116;BME280;69423;47.608;19.366;2024-01-27T02:17:35;99398.59;;;4.60;93.20
80116;BME280;69423;47.608;19.366;2024-01-27T02:18:06;99406.38;;;4.61;92.50
80116;BME280;69423;47.608;19.366;2024-01-27T02:18:37;99395.13;;;4.59;92.90
80116;BME280;69423;47.608;19.366;2024-01-27T02:19:08;99397.75;;;4.59;92.36
80116;BME280;69423;47.608;19.366;2024-01-27T02:19:39;99401.09;;;4.61;93.30
80116;BME280;69423;47.608;19.366;2024-01-27T02:20:10;99395.81;;;4.61;92.80
80116;BME280;69423;47.608;19.366;2024-01-27T02:20:42;99402.34;;;4.57;93.30
80116;BME280;69423;47.608;19.366;2024-01-27T02:21:13;99399.56;;;4.59;92.53
80116;BME280;69423;47.608;19.366;2024-01-27T02:21:44;99403.03;;;4.59;92.61
80116;BME280;69423;47.608;19.366;2024-01-27T02:22:15;99408.03;;;4.62;92.42
80116;BME280;69423;47.608;19.366;2024-01-27T02:22:46;99399.41;;;4.60;92.47
80116;BME280;69423;47.608;19.366;2024-01-27T02:23:17;99403.03;;;4.59;92.09
80116;BME280;69423;47.608;19.366;2024-01-27T02:23:48;99399.16;;;4.63;92.64
80116;BME280;69423;47.608;19.366;2024-01-27T02:24:19;99404.44;;;4.63;92.39
80116;BME280;69423;47.608;19.366;2024-01-27T02:24:50;99412.50;;;4.62;92.35
80116;BME280;69423;47.608;19.366;2024-01-27T02:25:21;99408.91;;;4.63;92.41
80116;BME280;69423;47.608;19.366;2024-01-27T02:25:52;99421.53;;;4.59;92.25
80116;BME280;69423;47.608;19.366;2024-01-27T02:26:23;99408.31;;;4.59;91.99
80116;BME280;69423;47.608;19.366;2024-01-27T02:26:54;99418.88;;;4.59;91.75
80116;BME280;69423;47.608;19.366;2024-01-27T02:27:25;99411.78;;;4.60;91.85
80116;BME280;69423;47.608;19.366;2024-01-27T02:27:56;99412.78;;;4.59;91.85
80116;BME280;69423;47.608;19.366;2024-01-27T02:28:27;99417.22;;;4.58;91.72
80116;BME280;69423;47.608;19.366;2024-01-27T02:28:58;99417.06;;;4.60;91.78
80116;BME280;69423;47.608;19.366;2024-01-27T02:29:29;99413.31;;;4.62;91.55
80116;BME280;69423;47.608;19.366;2024-01-27T02:30:00;99421.13;;;4.64;91.71
80116;BME280;69423;47.608;19.366;2024-01-27T02:30:31;99412.50;;;4.62;91.42
80116;BME280;69423;47.608;19.366;2024-01-27T02:31:02;99422.22;;;4.61;91.23
80116;BME280;69423;47.608;19.366;2024-01-27T02:31:34;99407.22;;;4.62;91.18
80116;BME280;69423;47.608;19.366;2024-01-27T02:32:05;99413.31;;;4.62;91.04
80116;BME280;69423;47.608;19.366;2024-01-27T02:32:36;99415.84;;;4.64;91.43
80116;BME280;69423;47.608;19.366;2024-01-27T02:33:07;99413.91;;;4.66;91.53
80116;BME280;69423;47.608;19.366;2024-01-27T02:33:38;99421.00;;;4.65;91.45
80116;BME280;69423;47.608;19.366;2024-01-27T02:34:09;99406.09;;;4.64;91.24
80116;BME280;69423;47.608;19.366;2024-01-27T02:34:40;99414.03;;;4.64;91.14
80116;BME280;69423;47.608;19.366;2024-01-27T02:35:11;99413.59;;;4.59;91.11
80116;BME280;69423;47.608;19.366;2024-01-27T02:35:43;99418.06;;;4.59;91.35
80116;BME280;69423;47.608;19.366;2024-01-27T02:36:14;99420.41;;;4.62;90.95
80116;BME280;69423;47.608;19.366;2024-01-27T02:36:45;99413.59;;;4.59;91.23
80116;BME280;69423;47.608;19.366;2024-01-27T02:37:18;99406.66;;;4.58;91.65
80116;BME280;69423;47.608;19.366;2024-01-27T02:37:50;99406.91;;;4.55;90.93
80116;BME280;69423;47.608;19.366;2024-01-27T02:38:21;99406.91;;;4.55;91.19
80116;BME280;69423;47.608;19.366;2024-01-27T02:38:52;99410.53;;;4.54;91.07
80116;BME280;69423;47.608;19.366;2024-01-27T02:39:23;99413.31;;;4.53;91.17
80116;BME280;69423;47.608;19.366;2024-01-27T02:39:54;99406.22;;;4.53;90.89
80116;BME280;69423;47.608;19.366;2024-01-27T02:40:25;99415.81;;;4.54;91.21
80116;BME280;69423;47.608;19.366;2024-01-27T02:40:56;99427.34;;;4.53;91.14
80116;BME280;69423;47.608;19.366;2024-01-27T02:41:27;99417.34;;;4.57;91.05
80116;BME280;69423;47.608;19.366;2024-01-27T02:41:58;99416.66;;;4.55;90.80
80116;BME280;69423;47.608;19.366;2024-01-27T02:42:29;99429.72;;;4.56;90.43
80116;BME280;69423;47.608;19.366;2024-01-27T02:43:00;99418.47;;;4.54;90.11
80116;BME280;69423;47.608;19.366;2024-01-27T02:43:31;99422.75;;;4.55;90.03
80116;BME280;69423;47.608;19.366;2024-01-27T02:44:02;99431.66;;;4.54;90.02
80116;BME280;69423;47.608;19.366;2024-01-27T02:44:33;99429.56;;;4.58;90.11